createdAt,value
2022-12-23T00:01:43.125Z,106.13
2022-12-23T00:06:36.348Z,83.57
2022-12-23T00:11:30.222Z,81.37
2022-12-23T00:16:23.621Z,80.83
2022-12-23T00:21:19.283Z,75.43
2022-12-23T00:26:15.978Z,72.53
2022-12-23T00:31:10.019Z,67.20
2022-12-23T00:36:03.837Z,70.00
2022-12-23T00:41:15.982Z,69.37
2022-12-23T00:46:09.277Z,66.00
2022-12-23T00:51:02.577Z,57.90
2022-12-23T00:55:55.718Z,59.40
2022-12-23T01:01:07.587Z,62.73
2022-12-23T01:06:01.320Z,59.90
2022-12-23T01:10:54.694Z,62.03
2022-12-23T01:15:51.920Z,64.60
2022-12-23T01:20:45.099Z,77.80
2022-12-23T01:25:38.234Z,60.47
2022-12-23T01:30:31.350Z,59.33
2022-12-23T01:35:25.843Z,60.27
2022-12-23T01:40:18.970Z,64.63
2022-12-23T01:45:19.193Z,68.73
2022-12-23T01:50:15.883Z,67.50
2022-12-23T01:55:11.166Z,64.70
2022-12-23T02:00:23.126Z,61.83
2022-12-23T02:05:17.520Z,73.03
2022-12-23T02:10:12.684Z,68.83
2022-12-23T02:15:50.674Z,73.47
2022-12-23T02:21:14.129Z,84.27
2022-12-23T02:26:40.942Z,70.43
2022-12-23T02:31:43.714Z,74.13
2022-12-23T02:36:47.733Z,83.50
2022-12-23T02:41:49.246Z,70.97
2022-12-23T02:46:48.153Z,75.10
2022-12-23T02:51:45.280Z,70.47
2022-12-23T02:56:44.332Z,84.50
2022-12-23T03:01:39.402Z,83.73
2022-12-23T03:06:39.534Z,78.47
2022-12-23T03:11:40.296Z,75.43
2022-12-23T03:16:43.331Z,74.93
2022-12-23T03:21:44.102Z,71.33
2022-12-23T03:26:41.810Z,69.50
2022-12-23T03:31:38.291Z,67.07
2022-12-23T03:36:34.515Z,60.80
2022-12-23T03:41:35.046Z,64.77
2022-12-23T03:46:33.774Z,57.88
2022-12-23T03:51:34.163Z,56.17
2022-12-23T03:56:37.243Z,52.70
2022-12-23T04:01:44.173Z,52.37
2022-12-23T04:06:43.689Z,54.67
2022-12-23T04:11:38.887Z,53.07
2022-12-23T04:16:32.368Z,54.87
2022-12-23T04:21:25.742Z,54.13
2022-12-23T04:26:19.022Z,52.63
2022-12-23T04:31:13.660Z,55.00
2022-12-23T04:36:07.417Z,51.50
2022-12-23T04:41:00.559Z,48.53
2022-12-23T04:45:54.010Z,46.20
2022-12-23T04:50:48.531Z,51.77
2022-12-23T04:55:41.715Z,49.53
2022-12-23T05:00:40.059Z,58.50
2022-12-23T05:05:33.477Z,72.10
2022-12-23T05:10:28.055Z,55.93
2022-12-23T05:15:21.158Z,59.80
2022-12-23T05:20:14.445Z,68.50
2022-12-23T05:25:08.799Z,71.93
2022-12-23T05:30:03.531Z,60.60
2022-12-23T05:34:56.880Z,73.20
2022-12-23T05:39:52.177Z,63.37
2022-12-23T05:44:45.363Z,64.87
2022-12-23T05:49:40.036Z,51.90
2022-12-23T05:54:38.252Z,46.37
2022-12-23T05:59:31.988Z,61.97
2022-12-23T06:04:25.438Z,47.13
2022-12-23T06:09:20.066Z,46.60
2022-12-23T06:14:13.660Z,53.50
2022-12-23T06:19:07.074Z,48.10
2022-12-23T06:24:00.279Z,57.73
2022-12-23T06:28:54.930Z,55.73
2022-12-23T06:33:51.087Z,69.17
2022-12-23T06:38:44.809Z,59.73
2022-12-23T06:43:37.995Z,60.60
2022-12-23T06:48:32.701Z,55.73
2022-12-23T06:53:26.179Z,57.60
2022-12-23T06:58:19.657Z,55.50
2022-12-23T07:03:13.011Z,78.17
2022-12-23T07:08:08.152Z,62.83
2022-12-23T07:13:04.245Z,58.33
2022-12-23T07:17:57.988Z,60.10
2022-12-23T07:22:51.803Z,88.63
2022-12-23T07:27:48.744Z,101.47
2022-12-23T07:32:42.060Z,76.57
2022-12-23T07:37:35.283Z,90.57
2022-12-23T07:42:46.756Z,81.10
2022-12-23T07:47:43.206Z,82.57
2022-12-23T07:52:36.610Z,75.73
2022-12-23T07:57:30.249Z,80.67
2022-12-23T08:02:25.527Z,61.30
2022-12-23T08:07:20.381Z,55.83
2022-12-23T08:12:13.844Z,56.67
2022-12-23T08:17:07.626Z,53.90
2022-12-23T08:22:01.199Z,54.07
2022-12-23T08:26:56.323Z,56.33
2022-12-23T08:31:50.473Z,57.23
2022-12-23T08:36:44.076Z,58.60
2022-12-23T08:41:40.648Z,51.10
2022-12-23T08:46:37.683Z,51.40
2022-12-23T08:51:32.192Z,54.50
2022-12-23T08:56:29.817Z,41.40
2022-12-23T09:01:25.823Z,41.67
2022-12-23T09:06:28.667Z,36.73
2022-12-23T09:11:28.657Z,31.73
2022-12-23T09:16:28.588Z,31.17
2022-12-23T09:21:29.953Z,30.70
2022-12-23T09:26:36.743Z,30.07
2022-12-23T09:31:37.758Z,27.50
2022-12-23T09:36:34.736Z,30.70
2022-12-23T09:41:50.569Z,33.73
2022-12-23T09:46:49.167Z,30.03
2022-12-23T09:51:45.618Z,29.47
2022-12-23T09:56:55.758Z,30.30
2022-12-23T10:02:02.419Z,30.92
2022-12-23T10:07:32.585Z,31.93
2022-12-23T10:12:40.615Z,32.10
2022-12-23T10:17:43.249Z,30.93
2022-12-23T10:22:42.625Z,32.67
2022-12-23T10:27:55.859Z,32.73
2022-12-23T10:38:59.660Z,37.57
2022-12-23T10:44:06.182Z,33.43
2022-12-23T10:49:12.737Z,37.10
2022-12-23T10:54:11.110Z,30.77
2022-12-23T10:59:04.627Z,28.83
2022-12-23T11:04:06.014Z,30.47
2022-12-23T11:09:01.853Z,26.67
2022-12-23T11:13:57.576Z,30.17
2022-12-23T11:18:57.292Z,31.73
2022-12-23T11:24:07.958Z,26.90
2022-12-23T11:29:08.330Z,26.42
2022-12-23T11:34:04.074Z,27.88
2022-12-23T11:39:05.942Z,30.33
2022-12-23T11:44:01.691Z,31.53
2022-12-23T11:49:20.780Z,30.85
2022-12-23T11:54:19.543Z,43.63
2022-12-23T11:59:29.950Z,33.92
2022-12-23T12:04:27.763Z,29.75
2022-12-23T12:09:23.719Z,34.00
2022-12-23T12:14:25.422Z,28.90
2022-12-23T12:19:24.928Z,27.25
2022-12-23T12:24:25.791Z,27.20
2022-12-23T12:29:25.397Z,26.92
2022-12-23T12:34:33.542Z,30.88
2022-12-23T12:39:35.174Z,29.30
2022-12-23T12:44:36.055Z,26.95
2022-12-23T12:49:39.612Z,33.80
2022-12-23T12:54:41.144Z,30.17
2022-12-23T12:59:38.363Z,30.92
2022-12-23T13:04:54.927Z,34.05
2022-12-23T13:10:02.025Z,31.00
2022-12-23T13:15:01.493Z,31.02
2022-12-23T13:20:02.675Z,31.25
2022-12-23T13:25:03.560Z,33.55
2022-12-23T13:30:14.023Z,33.28
2022-12-23T13:35:25.277Z,31.80
2022-12-23T13:40:32.351Z,33.38
2022-12-23T13:45:33.478Z,42.17
2022-12-23T13:50:35.424Z,37.05
2022-12-23T13:55:49.700Z,36.25
2022-12-23T14:00:43.792Z,35.80
2022-12-23T14:05:59.233Z,38.08
2022-12-23T14:11:02.876Z,36.63
2022-12-23T14:16:17.745Z,35.92
2022-12-23T14:21:22.107Z,39.27
2022-12-23T14:26:47.498Z,42.95
2022-12-23T14:31:46.706Z,46.07
2022-12-23T14:36:41.578Z,41.23
2022-12-23T14:41:40.975Z,54.83
2022-12-23T14:47:03.037Z,46.43
2022-12-23T14:52:49.692Z,54.07
2022-12-23T15:09:49.471Z,58.63
2022-12-23T15:14:52.127Z,50.07
2022-12-23T15:19:52.773Z,61.13
2022-12-23T15:24:55.093Z,66.50
2022-12-23T15:29:56.119Z,64.57
2022-12-23T15:35:01.590Z,60.70
2022-12-23T15:40:07.874Z,63.07
2022-12-23T15:45:36.391Z,85.20
2022-12-23T15:50:41.675Z,67.80
2022-12-23T15:55:46.704Z,64.07
2022-12-23T16:01:02.703Z,100.23
2022-12-23T16:05:58.550Z,83.97
2022-12-23T16:24:14.507Z,68.13
2022-12-23T16:36:37.274Z,68.10
2022-12-23T17:03:36.646Z,62.37
2022-12-23T17:09:13.801Z,57.47
2022-12-23T17:14:20.869Z,60.53
2022-12-23T17:19:15.830Z,62.10
2022-12-23T17:24:14.296Z,65.87
2022-12-23T17:29:08.060Z,69.93
2022-12-23T17:34:01.963Z,79.40
2022-12-23T17:38:56.777Z,70.47
2022-12-23T17:43:50.134Z,73.83
2022-12-23T17:48:45.105Z,69.53
2022-12-23T17:53:38.354Z,79.03
2022-12-23T17:58:33.106Z,80.60
2022-12-23T18:03:26.471Z,76.07
2022-12-23T18:08:20.884Z,92.63
2022-12-23T18:13:17.641Z,104.70
2022-12-23T18:18:18.993Z,161.10
2022-12-23T18:23:24.216Z,152.73
2022-12-23T18:28:19.333Z,126.90
2022-12-23T18:33:20.533Z,122.70
2022-12-23T18:38:14.301Z,129.33
2022-12-23T18:43:07.779Z,142.67
2022-12-23T18:48:01.151Z,118.50
2022-12-23T18:52:59.141Z,127.03
2022-12-23T18:57:52.486Z,126.10
2022-12-23T19:02:46.130Z,123.27
2022-12-23T19:07:39.577Z,128.03
2022-12-23T19:12:34.389Z,128.13
2022-12-23T19:17:28.073Z,130.67
2022-12-23T19:22:21.366Z,123.27
2022-12-23T19:27:14.628Z,144.43
2022-12-23T19:32:09.330Z,123.13
2022-12-23T19:37:02.475Z,147.67
2022-12-23T19:41:55.765Z,166.20
2022-12-23T19:46:50.595Z,106.73
2022-12-23T19:51:46.117Z,98.33
2022-12-23T19:56:39.599Z,97.87
2022-12-23T20:01:32.892Z,105.57
2022-12-23T20:06:28.900Z,103.13
2022-12-23T20:11:26.495Z,100.00
2022-12-23T20:16:24.055Z,88.90
2022-12-23T20:21:19.871Z,80.43
2022-12-23T20:26:14.172Z,82.27
2022-12-23T20:31:13.193Z,81.43
2022-12-23T20:36:11.177Z,78.53
2022-12-23T20:41:04.648Z,73.13
2022-12-23T20:46:00.648Z,86.43
2022-12-23T20:50:55.566Z,82.63
2022-12-23T20:55:48.797Z,87.97
2022-12-23T21:00:41.980Z,100.97
2022-12-23T21:05:35.242Z,97.70
2022-12-23T21:10:29.951Z,74.17
2022-12-23T21:15:24.368Z,75.77
2022-12-23T21:20:17.819Z,84.07
2022-12-23T21:25:11.970Z,76.67
2022-12-23T21:30:08.319Z,76.93
2022-12-23T21:35:03.816Z,95.63
2022-12-23T21:39:57.412Z,82.07
2022-12-23T21:44:50.823Z,70.67
2022-12-23T21:49:45.455Z,65.83
2022-12-23T21:54:38.837Z,70.37
2022-12-23T21:59:35.194Z,66.77
2022-12-23T22:04:28.922Z,67.50
2022-12-23T22:09:23.562Z,67.77
2022-12-23T22:14:18.609Z,64.57
2022-12-23T22:19:12.890Z,65.30
2022-12-23T22:24:08.211Z,77.67
2022-12-23T22:29:04.868Z,98.00
2022-12-23T22:33:58.253Z,84.53
2022-12-23T22:38:53.792Z,78.43
2022-12-23T22:43:47.193Z,74.83
2022-12-23T22:48:41.961Z,54.23
2022-12-23T22:53:35.591Z,52.13
2022-12-23T22:58:30.312Z,51.73
2022-12-23T23:03:24.154Z,53.83
2022-12-23T23:08:18.751Z,55.50
2022-12-23T23:13:11.897Z,53.90
2022-12-23T23:18:05.361Z,53.60
2022-12-23T23:22:58.535Z,51.30
2022-12-23T23:27:53.132Z,51.07
2022-12-23T23:32:46.418Z,47.47
2022-12-23T23:37:39.618Z,46.10
2022-12-23T23:42:32.768Z,60.97
2022-12-23T23:47:27.322Z,52.17
2022-12-23T23:52:20.559Z,50.80
2022-12-23T23:57:16.589Z,54.30
